Time;durP1;ratioP1;P1;durP2;ratioP2;P2;SDS_P1;SDS_P2;PMS_P1;PMS_P2;Temp;Humidity;BMP_temperature;BMP_pressure;BME280_temperature;BME280_humidity;BME280_pressure;Samples;Min_cycle;Max_cycle;Signal;HPM_P1;HPM_P2
2021/09/23 00:00:24;;;;;;;7.93;3.93;;;;;;;-143.37;100.00;65745.06;5092866;28;20229;-77
2021/09/23 00:05:27;;;;;;;6.70;3.90;;;;;;;-143.37;100.00;65745.06;5092096;28;20309;-75
2021/09/23 00:07:55;;;;;;;5.60;3.83;;;;;;;-143.37;100.00;65745.06;5091389;28;20226;-76
2021/09/23 00:10:25;;;;;;;6.57;3.83;;;;;;;-143.37;100.00;65745.06;5083684;28;20722;-75
2021/09/23 00:12:52;;;;;;;4.23;2.97;;;;;;;-143.37;100.00;65745.06;5071540;28;20250;-76
2021/09/23 00:15:19;;;;;;;5.43;3.60;;;;;;;-143.37;100.00;65745.06;5071723;28;20299;-75
2021/09/23 00:17:49;;;;;;;5.57;3.50;;;;;;;-143.37;100.00;65745.06;5072381;28;20262;-76
2021/09/23 00:20:16;;;;;;;5.30;3.60;;;;;;;-143.37;100.00;65745.06;5072420;28;20220;-76
2021/09/23 00:22:43;;;;;;;5.30;3.70;;;;;;;-143.37;100.00;65745.06;5072602;28;20217;-75
2021/09/23 00:25:11;;;;;;;5.33;3.10;;;;;;;-143.37;100.00;65745.06;5071906;28;20229;-76
2021/09/23 00:27:38;;;;;;;7.37;3.77;;;;;;;-143.37;100.00;65745.06;5072891;28;20662;-76
2021/09/23 00:30:07;;;;;;;5.27;3.10;;;;;;;-143.37;100.00;65745.06;5072496;28;20201;-76
2021/09/23 00:32:34;;;;;;;6.07;3.57;;;;;;;-143.37;100.00;65745.06;5073677;28;20213;-76
2021/09/23 00:35:00;;;;;;;5.00;3.03;;;;;;;-143.37;100.00;65745.06;5091513;28;20826;-76
2021/09/23 00:37:27;;;;;;;5.50;3.70;;;;;;;-143.37;100.00;65745.06;5092555;28;20204;-75
2021/09/23 00:39:53;;;;;;;9.67;3.07;;;;;;;-143.37;100.00;65745.06;5092138;28;20225;-75
2021/09/23 00:42:20;;;;;;;4.67;3.30;;;;;;;-143.37;100.00;65745.06;5092401;28;20251;-76
2021/09/23 00:44:56;;;;;;;4.60;3.53;;;;;;;-143.37;100.00;65745.06;5091805;28;20215;-76
2021/09/23 00:47:23;;;;;;;11.17;3.33;;;;;;;-143.37;100.00;65745.06;5092112;28;20213;-76
2021/09/23 00:49:50;;;;;;;4.87;3.40;;;;;;;-143.37;100.00;65745.06;5092226;28;20270;-77
2021/09/23 00:52:19;;;;;;;6.77;3.00;;;;;;;-143.37;100.00;65745.06;5092229;28;20212;-76
2021/09/23 00:54:49;;;;;;;6.87;3.10;;;;;;;-143.37;100.00;65745.06;5091429;28;20591;-76
2021/09/23 00:57:17;;;;;;;7.13;3.57;;;;;;;-143.37;100.00;65745.06;5091757;28;20236;-76
2021/09/23 00:59:45;;;;;;;6.73;3.20;;;;;;;-143.37;100.00;65745.06;5091874;28;20220;-75
2021/09/23 01:34:28;;;;;;;5.60;4.03;;;;;;;-143.37;100.00;65745.06;5108905;27;20564;-76
2021/09/23 01:36:55;;;;;;;7.07;3.50;;;;;;;-143.37;100.00;65745.06;5107654;28;20235;-76
2021/09/23 01:39:25;;;;;;;7.07;3.37;;;;;;;-143.37;100.00;65745.06;5109112;28;20212;-75
2021/09/23 01:41:53;;;;;;;5.43;3.30;;;;;;;-143.37;100.00;65745.06;5109373;28;20225;-76
2021/09/23 01:44:19;;;;;;;6.70;3.47;;;;;;;-143.37;100.00;65745.06;5107748;28;20262;-74
2021/09/23 01:46:46;;;;;;;5.07;3.53;;;;;;;-143.37;100.00;65745.06;5108783;28;20219;-75
2021/09/23 01:49:13;;;;;;;5.20;3.20;;;;;;;-143.37;100.00;65745.06;5108982;28;20208;-75
2021/09/23 01:51:40;;;;;;;5.77;3.53;;;;;;;-143.37;100.00;65745.06;5108833;28;20215;-75
2021/09/23 01:54:06;;;;;;;5.17;3.80;;;;;;;-143.37;100.00;65745.06;5108318;28;20254;-76
2021/09/23 01:56:33;;;;;;;6.00;3.37;;;;;;;-143.37;100.00;65745.06;5108484;28;20227;-75
2021/09/23 01:58:59;;;;;;;3.77;2.90;;;;;;;-143.37;100.00;65745.06;5109116;28;20214;-75
2021/09/23 02:01:26;;;;;;;7.43;3.17;;;;;;;-143.37;100.00;65745.06;5109021;28;20281;-75
2021/09/23 02:03:53;;;;;;;4.87;3.30;;;;;;;-143.37;100.00;65745.06;5108927;28;20235;-75
2021/09/23 02:06:22;;;;;;;4.97;3.17;;;;;;;-143.37;100.00;65745.06;5108454;28;20277;-75
2021/09/23 02:08:49;;;;;;;6.07;3.23;;;;;;;-143.37;100.00;65745.06;5108461;28;20253;-75
2021/09/23 02:11:15;;;;;;;8.07;3.13;;;;;;;-143.37;100.00;65745.06;5090765;28;20208;-76
2021/09/23 02:13:43;;;;;;;4.50;3.03;;;;;;;-143.37;100.00;65745.06;5087815;28;20251;-77
2021/09/23 02:16:09;;;;;;;4.47;3.23;;;;;;;-143.37;100.00;65745.06;5087786;28;20233;-75
2021/09/23 02:18:36;;;;;;;6.73;3.27;;;;;;;-143.37;100.00;65745.06;5088019;28;20646;-76
2021/09/23 02:21:03;;;;;;;9.97;3.97;;;;;;;-143.37;100.00;65745.06;5087978;28;20208;-75
2021/09/23 02:23:29;;;;;;;5.20;3.57;;;;;;;-143.37;100.00;65745.06;5086315;28;20204;-76
2021/09/23 02:25:56;;;;;;;10.03;4.50;;;;;;;-143.37;100.00;65745.06;5087629;28;20294;-76
2021/09/23 02:28:22;;;;;;;7.47;4.27;;;;;;;-143.37;100.00;65745.06;5087744;28;20201;-76
2021/09/23 02:30:49;;;;;;;9.97;4.87;;;;;;;-143.37;100.00;65745.06;5087854;28;20661;-74
2021/09/23 02:33:16;;;;;;;9.70;4.33;;;;;;;-143.37;100.00;65745.06;5094423;28;20273;-75
2021/09/23 02:35:43;;;;;;;11.27;4.57;;;;;;;-143.37;100.00;65745.06;5107547;28;20277;-75
2021/09/23 02:38:09;;;;;;;10.73;4.67;;;;;;;-143.37;100.00;65745.06;5106646;28;20207;-76
2021/09/23 02:40:36;;;;;;;4.77;3.90;;;;;;;-143.37;100.00;65745.06;5106949;28;20208;-76
2021/09/23 02:43:02;;;;;;;6.03;4.30;;;;;;;-143.37;100.00;65745.06;5107628;28;20673;-77
2021/09/23 02:45:37;;;;;;;10.20;4.47;;;;;;;11.53;100.00;98871.19;5095481;28;20220;-76
2021/09/23 02:48:16;;;;;;;7.90;4.17;;;;;;;-143.37;100.00;65745.06;5093101;28;20283;-76
2021/09/23 02:50:57;;;;;;;7.03;4.33;;;;;;;-143.37;100.00;65745.06;5094315;28;20238;-76
2021/09/23 02:53:39;;;;;;;8.43;4.30;;;;;;;-143.37;100.00;65745.06;5093743;28;20255;-76
2021/09/23 02:56:20;;;;;;;8.20;3.97;;;;;;;-143.37;100.00;65745.06;5093602;28;20256;-76
2021/09/23 02:59:01;;;;;;;5.97;3.87;;;;;;;-143.37;100.00;65745.06;5093895;28;20289;-75
2021/09/23 03:01:43;;;;;;;5.47;4.03;;;;;;;-143.37;100.00;65745.06;5094123;28;20239;-76
2021/09/23 03:04:24;;;;;;;5.03;3.47;;;;;;;-143.37;100.00;65745.06;5092501;28;20204;-75
2021/09/23 03:07:06;;;;;;;4.97;3.57;;;;;;;-143.37;100.00;65745.06;5093525;28;20234;-76
2021/09/23 03:09:47;;;;;;;3.77;2.40;;;;;;;-143.37;100.00;65745.06;5091774;28;20666;-75
2021/09/23 03:12:28;;;;;;;5.53;3.53;;;;;;;-143.37;100.00;65745.06;5073573;28;20234;-76
2021/09/23 03:15:09;;;;;;;4.07;3.60;;;;;;;-143.37;100.00;65745.06;5072715;28;20209;-75
2021/09/23 03:17:50;;;;;;;4.67;3.47;;;;;;;-143.37;100.00;65745.06;5088886;28;20205;-75
2021/09/23 03:20:32;;;;;;;5.53;3.93;;;;;;;-143.37;100.00;65745.06;5073404;28;20223;-75
2021/09/23 03:23:13;;;;;;;5.63;3.90;;;;;;;-143.37;100.00;65745.06;5073324;28;20232;-76
2021/09/23 03:25:55;;;;;;;6.30;3.93;;;;;;;-143.37;100.00;65745.06;5072048;28;20221;-76
2021/09/23 03:28:36;;;;;;;5.73;4.20;;;;;;;-143.37;100.00;65745.06;5073740;28;20307;-76
2021/09/23 03:31:17;;;;;;;8.50;4.83;;;;;;;-143.37;100.00;65745.06;5074246;28;20258;-75
2021/09/23 03:33:59;;;;;;;6.40;4.07;;;;;;;-143.37;100.00;65745.06;5083774;28;20224;-75
2021/09/23 03:36:41;;;;;;;6.73;3.57;;;;;;;-143.37;100.00;65745.06;5108516;28;20591;-76
2021/09/23 03:39:22;;;;;;;5.73;3.97;;;;;;;-143.37;100.00;65745.06;5093608;28;20205;-77
2021/09/23 03:42:03;;;;;;;5.50;3.90;;;;;;;-143.37;100.00;65745.06;5093351;28;20212;-76
2021/09/23 03:44:45;;;;;;;6.23;3.87;;;;;;;-143.37;100.00;65745.06;5092665;28;20258;-76
2021/09/23 03:47:26;;;;;;;6.13;4.10;;;;;;;-143.37;100.00;65745.06;5093284;28;20224;-75
2021/09/23 03:50:08;;;;;;;5.33;3.63;;;;;;;-143.37;100.00;65745.06;5092927;28;20258;-74
2021/09/23 03:52:50;;;;;;;5.60;3.70;;;;;;;-143.37;100.00;65745.06;5092994;28;20204;-76
2021/09/23 03:55:31;;;;;;;8.50;4.30;;;;;;;-143.37;100.00;65745.06;5092283;28;20267;-76
2021/09/23 03:58:12;;;;;;;5.40;3.67;;;;;;;-143.37;100.00;65745.06;5092438;28;20232;-76
2021/09/23 04:00:54;;;;;;;9.87;4.80;;;;;;;-143.37;100.00;65745.06;5092842;28;20232;-76
2021/09/23 04:03:35;;;;;;;9.93;4.13;;;;;;;-143.37;100.00;65745.06;5092459;28;20271;-76
2021/09/23 04:06:17;;;;;;;9.13;4.67;;;;;;;-143.37;100.00;65745.06;5092698;28;20225;-76
2021/09/23 04:08:58;;;;;;;9.23;4.83;;;;;;;-143.37;100.00;65745.06;5092847;28;20239;-76
2021/09/23 04:11:40;;;;;;;9.03;5.03;;;;;;;-143.37;100.00;65745.06;5075170;28;20254;-75
2021/09/23 04:14:22;;;;;;;6.30;3.77;;;;;;;-143.37;100.00;65745.06;5072182;28;20229;-76
2021/09/23 04:17:03;;;;;;;7.23;4.23;;;;;;;-143.37;100.00;65745.06;5071878;28;20654;-76
2021/09/23 04:19:45;;;;;;;7.87;4.40;;;;;;;-143.37;100.00;65745.06;5072366;28;20244;-75
2021/09/23 04:22:26;;;;;;;8.50;4.50;;;;;;;-143.37;100.00;65745.06;5072054;28;20233;-77
2021/09/23 04:25:08;;;;;;;11.23;4.87;;;;;;;-143.37;100.00;65745.06;5071302;28;20231;-76
2021/09/23 04:27:51;;;;;;;8.97;4.13;;;;;;;-143.37;100.00;65745.06;5072091;28;20723;-75
2021/09/23 04:30:33;;;;;;;8.60;4.17;;;;;;;-143.37;100.00;65745.06;5069067;28;20669;-76
2021/09/23 04:33:15;;;;;;;6.93;4.47;;;;;;;-143.37;100.00;65745.06;5061976;28;20204;-76
2021/09/23 04:35:56;;;;;;;8.67;4.03;;;;;;;-143.37;100.00;65745.06;5079718;28;20248;-76
2021/09/23 04:38:37;;;;;;;6.37;4.03;;;;;;;-143.37;100.00;65745.06;5052031;28;20217;-76
2021/09/23 04:41:19;;;;;;;9.83;4.73;;;;;;;-143.37;100.00;65745.06;5060572;28;20259;-76
2021/09/23 04:44:00;;;;;;;5.37;3.90;;;;;;;-143.37;100.00;65745.06;5071241;28;20201;-76
2021/09/23 04:46:41;;;;;;;4.90;3.17;;;;;;;-143.37;100.00;65745.06;5057797;28;20299;-75
2021/09/23 04:49:22;;;;;;;5.87;3.73;;;;;;;-143.37;100.00;65745.06;5050287;28;20205;-75
2021/09/23 04:52:04;;;;;;;7.20;4.00;;;;;;;-143.37;100.00;65745.06;5051843;28;20271;-75
2021/09/23 04:54:45;;;;;;;4.67;3.53;;;;;;;-143.37;100.00;65745.06;5051067;28;20623;-75
2021/09/23 04:57:26;;;;;;;7.33;2.80;;;;;;;-143.37;100.00;65745.06;5072779;28;20228;-75
2021/09/23 05:00:08;;;;;;;4.70;3.47;;;;;;;-143.37;100.00;65745.06;5058804;28;20205;-76
2021/09/23 05:02:49;;;;;;;8.43;3.07;;;;;;;-143.37;100.00;65745.06;5051587;28;20205;-74
2021/09/23 05:05:31;;;;;;;4.53;3.50;;;;;;;-143.37;100.00;65745.06;5061264;28;20274;-72
2021/09/23 05:08:12;;;;;;;7.23;3.13;;;;;;;-143.37;100.00;65745.06;5067816;28;20197;-73
2021/09/23 05:10:56;;;;;;;7.37;4.30;;;;;;;-143.37;100.00;65745.06;5059861;28;20210;-71
2021/09/23 05:13:37;;;;;;;9.67;4.10;;;;;;;-143.37;100.00;65745.06;5050848;28;20239;-74
2021/09/23 05:16:19;;;;;;;8.67;3.83;;;;;;;-143.37;100.00;65745.06;5050784;28;20233;-73
2021/09/23 05:19:00;;;;;;;5.50;4.00;;;;;;;-143.37;100.00;65745.06;5050972;28;20667;-73
2021/09/23 05:21:30;;;;;;;7.60;4.40;;;;;;;-143.37;100.00;65745.06;5051203;28;20206;-72
2021/09/23 05:23:56;;;;;;;5.47;3.97;;;;;;;-143.37;100.00;65745.06;5050730;28;20205;-72
2021/09/23 05:26:23;;;;;;;8.70;3.53;;;;;;;-143.37;100.00;65745.06;5049304;28;20260;-74
2021/09/23 05:28:51;;;;;;;6.00;4.10;;;;;;;-143.37;100.00;65745.06;5050224;28;20268;-75
2021/09/23 05:31:32;;;;;;;6.07;4.17;;;;;;;-143.37;100.00;65745.06;5058933;28;20205;-74
2021/09/23 05:34:14;;;;;;;7.37;3.87;;;;;;;-143.37;100.00;65745.06;5075014;28;20228;-74
2021/09/23 05:36:46;;;;;;;11.00;4.30;;;;;;;-143.37;100.00;65745.06;5061997;28;20725;-73
2021/09/23 05:39:27;;;;;;;8.50;4.47;;;;;;;-143.37;100.00;65745.06;5052564;28;20198;-73
2021/09/23 05:42:08;;;;;;;7.80;4.37;;;;;;;-143.37;100.00;65745.06;5071175;28;20201;-77
2021/09/23 05:44:50;;;;;;;8.50;4.90;;;;;;;-143.37;100.00;65745.06;5069630;28;20197;-76
2021/09/23 05:47:31;;;;;;;12.77;4.40;;;;;;;-143.37;100.00;65745.06;5070153;28;20201;-76
2021/09/23 05:49:57;;;;;;;9.30;4.83;;;;;;;-143.37;100.00;65745.06;5071169;28;20326;-76
2021/09/23 05:52:24;;;;;;;8.83;5.27;;;;;;;-143.37;100.00;65745.06;5070907;28;20254;-77
2021/09/23 05:54:50;;;;;;;7.70;4.80;;;;;;;-143.37;100.00;65745.06;5070441;28;20248;-75
2021/09/23 05:57:22;;;;;;;8.80;4.73;;;;;;;-143.37;100.00;65745.06;5082879;28;20204;-76
2021/09/23 05:59:51;;;;;;;8.30;4.73;;;;;;;-143.37;100.00;65745.06;5090877;28;20665;-76
2021/09/23 06:02:18;;;;;;;14.23;4.87;;;;;;;-143.37;100.00;65745.06;5091330;28;20208;-77
2021/09/23 06:04:46;;;;;;;10.97;4.83;;;;;;;-143.37;100.00;65745.06;5090854;28;20196;-74
2021/09/23 06:07:13;;;;;;;6.17;4.13;;;;;;;-143.37;100.00;65745.06;5090038;28;20256;-75
2021/09/23 06:09:40;;;;;;;8.20;4.87;;;;;;;-143.37;100.00;65745.06;5087032;28;20194;-76
2021/09/23 06:12:07;;;;;;;8.03;4.53;;;;;;;-143.37;100.00;65745.06;5070890;28;20237;-76
2021/09/23 06:14:35;;;;;;;10.90;4.73;;;;;;;-143.37;100.00;65745.06;5069963;28;20270;-76
2021/09/23 06:17:01;;;;;;;7.60;4.30;;;;;;;-143.37;100.00;65745.06;5070418;28;20279;-76
2021/09/23 06:19:28;;;;;;;10.57;4.20;;;;;;;-143.37;100.00;65745.06;5072133;28;20206;-76
2021/09/23 06:21:54;;;;;;;9.87;5.40;;;;;;;-143.37;100.00;65745.06;5072950;28;20208;-75
2021/09/23 06:24:21;;;;;;;6.40;4.30;;;;;;;-143.37;100.00;65745.06;5074375;28;20454;-76
2021/09/23 06:26:47;;;;;;;6.87;4.23;;;;;;;-143.37;100.00;65745.06;5074035;28;20229;-76
2021/09/23 06:29:14;;;;;;;6.47;4.13;;;;;;;-143.37;100.00;65745.06;5074298;28;20247;-77
2021/09/23 06:31:41;;;;;;;5.97;4.40;;;;;;;-143.37;100.00;65745.06;5074311;28;20231;-77
2021/09/23 06:34:07;;;;;;;7.37;4.40;;;;;;;-143.37;100.00;65745.06;5087852;28;20224;-76
2021/09/23 06:36:35;;;;;;;7.60;4.93;;;;;;;-143.37;100.00;65745.06;5093955;28;20679;-76
2021/09/23 06:39:03;;;;;;;7.53;4.90;;;;;;;-143.37;100.00;65745.06;5094242;28;20677;-76
2021/09/23 06:41:30;;;;;;;8.67;5.43;;;;;;;-143.37;100.00;65745.06;5094465;28;20289;-76
2021/09/23 06:43:59;;;;;;;9.23;5.40;;;;;;;-143.37;100.00;65745.06;5093948;28;20204;-75
2021/09/23 06:46:27;;;;;;;12.03;5.03;;;;;;;-143.37;100.00;65745.06;5093994;28;20228;-76
2021/09/23 06:48:54;;;;;;;8.90;5.03;;;;;;;-143.37;100.00;65745.06;5094155;28;20291;-76
2021/09/23 06:51:21;;;;;;;8.53;5.57;;;;;;;-143.37;100.00;65745.06;5093531;28;20574;-77
2021/09/23 06:54:01;;;;;;;9.77;5.73;;;;;;;-143.37;100.00;65745.06;5092408;28;20771;-76
2021/09/23 06:56:27;;;;;;;9.57;6.43;;;;;;;-143.37;100.00;65745.06;5093407;28;20224;-76
2021/09/23 06:58:54;;;;;;;10.07;5.90;;;;;;;-143.37;100.00;65745.06;5094139;28;20204;-76
2021/09/23 07:01:20;;;;;;;12.43;6.00;;;;;;;-143.37;100.00;65745.06;5092812;28;20733;-76
2021/09/23 07:03:47;;;;;;;7.47;5.37;;;;;;;-143.37;100.00;65745.06;5093537;28;20764;-76
2021/09/23 07:06:14;;;;;;;9.83;6.37;;;;;;;-143.37;100.00;65745.06;5092707;28;20239;-76
2021/09/23 07:08:40;;;;;;;12.57;5.90;;;;;;;-143.37;100.00;65745.06;5094022;28;20204;-76
2021/09/23 07:11:07;;;;;;;7.90;5.47;;;;;;;-143.37;100.00;65745.06;5079525;28;20229;-75
2021/09/23 07:13:34;;;;;;;10.07;6.30;;;;;;;-143.37;100.00;65745.06;5073303;28;20213;-75
2021/09/23 07:16:00;;;;;;;8.30;5.60;;;;;;;-143.37;100.00;65745.06;5072949;28;20249;-76
2021/09/23 07:18:27;;;;;;;8.63;5.93;;;;;;;-143.37;100.00;65745.06;5073495;28;20213;-76
2021/09/23 07:20:56;;;;;;;7.57;5.33;;;;;;;-143.37;100.00;65745.06;5073275;28;20219;-76
2021/09/23 07:23:24;;;;;;;9.27;5.47;;;;;;;-143.37;100.00;65745.06;5072846;28;20205;-77
2021/09/23 07:25:53;;;;;;;11.13;5.97;;;;;;;-143.37;100.00;65745.06;5073057;28;20221;-76
2021/09/23 07:28:20;;;;;;;14.17;7.83;;;;;;;-143.37;100.00;65745.06;5073357;28;20267;-76
2021/09/23 07:30:46;;;;;;;11.60;5.93;;;;;;;-143.37;100.00;65745.06;5072760;28;20843;-76
2021/09/23 07:33:13;;;;;;;9.00;6.50;;;;;;;-143.37;100.00;65745.06;5072372;28;20607;-76
2021/09/23 07:35:39;;;;;;;8.93;5.83;;;;;;;-143.37;100.00;65745.06;5072582;28;20652;-76
2021/09/23 07:38:06;;;;;;;10.47;6.47;;;;;;;-143.37;100.00;65745.06;5073500;28;20251;-77
2021/09/23 07:40:33;;;;;;;13.43;7.20;;;;;;;-143.37;100.00;65745.06;5071701;28;20682;-76
2021/09/23 07:42:59;;;;;;;13.40;7.17;;;;;;;-143.37;100.00;65745.06;5072935;28;20202;-77
2021/09/23 07:45:27;;;;;;;15.57;7.73;;;;;;;-143.37;100.00;65745.06;5072311;28;20547;-77
2021/09/23 07:47:53;;;;;;;11.57;7.23;;;;;;;-143.37;100.00;65745.06;5072862;28;20301;-76
2021/09/23 07:50:20;;;;;;;12.70;7.27;;;;;;;-143.37;100.00;65745.06;5072382;28;20615;-76
2021/09/23 07:52:47;;;;;;;12.20;7.20;;;;;;;-143.37;100.00;65745.06;5072710;28;20213;-76
2021/09/23 07:55:13;;;;;;;12.40;7.13;;;;;;;-143.37;100.00;65745.06;5071904;28;20228;-77
2021/09/23 07:57:40;;;;;;;13.60;7.67;;;;;;;-143.37;100.00;65745.06;5071061;28;20209;-75
2021/09/23 08:00:07;;;;;;;13.17;7.50;;;;;;;-143.37;100.00;65745.06;5072623;28;20233;-78
2021/09/23 08:02:33;;;;;;;11.87;7.63;;;;;;;-143.37;100.00;65745.06;5072232;28;20209;-76
2021/09/23 08:05:00;;;;;;;13.10;7.93;;;;;;;-143.37;100.00;65745.06;5071437;28;20334;-76
2021/09/23 08:07:27;;;;;;;16.73;8.37;;;;;;;-143.37;100.00;65745.06;5072692;28;20205;-76
2021/09/23 08:09:53;;;;;;;12.50;7.97;;;;;;;-143.37;100.00;65745.06;5072729;28;20193;-77
2021/09/23 08:12:20;;;;;;;16.30;9.60;;;;;;;-143.37;100.00;65745.06;5072220;28;20231;-76
2021/09/23 08:14:47;;;;;;;14.07;8.17;;;;;;;-143.37;100.00;65745.06;5071367;28;20228;-76
2021/09/23 08:17:14;;;;;;;12.67;8.30;;;;;;;-143.37;100.00;65745.06;5070429;28;20236;-76
2021/09/23 08:19:41;;;;;;;14.47;8.70;;;;;;;-143.37;100.00;65745.06;5071592;28;20580;-76
2021/09/23 08:22:07;;;;;;;12.63;8.67;;;;;;;-143.37;100.00;65745.06;5071826;28;20205;-76
2021/09/23 08:24:35;;;;;;;19.10;9.33;;;;;;;-143.37;100.00;65745.06;5071416;28;20326;-77
2021/09/23 08:27:03;;;;;;;15.20;9.73;;;;;;;-143.37;100.00;65745.06;5069634;28;20229;-77
2021/09/23 08:29:29;;;;;;;14.23;8.23;;;;;;;-143.37;100.00;65745.06;5069755;28;20618;-77
2021/09/23 08:31:56;;;;;;;15.57;9.33;;;;;;;-143.37;100.00;65745.06;5072049;28;20611;-78
2021/09/23 08:34:23;;;;;;;13.27;8.57;;;;;;;-143.37;100.00;65745.06;5071331;28;20221;-76
2021/09/23 08:36:49;;;;;;;13.70;8.43;;;;;;;-143.37;100.00;65745.06;5087097;28;20284;-78
2021/09/23 08:39:16;;;;;;;19.27;9.77;;;;;;;-143.37;100.00;65745.06;5071567;28;20677;-77
2021/09/23 08:41:43;;;;;;;13.00;8.80;;;;;;;-143.37;100.00;65745.06;5071083;28;20735;-78
2021/09/23 08:44:10;;;;;;;13.07;9.27;;;;;;;-143.37;100.00;65745.06;5071225;28;20283;-76
2021/09/23 08:46:36;;;;;;;12.17;8.57;;;;;;;-143.37;100.00;65745.06;5070896;28;20308;-77
2021/09/23 08:49:05;;;;;;;14.77;9.30;;;;;;;-143.37;100.00;65745.06;5071843;28;20213;-77
2021/09/23 08:51:31;;;;;;;14.00;9.00;;;;;;;-143.37;100.00;65745.06;5071285;28;20209;-77
2021/09/23 08:53:58;;;;;;;15.97;8.37;;;;;;;-143.37;100.00;65745.06;5071607;28;20278;-77
2021/09/23 08:56:24;;;;;;;11.50;8.10;;;;;;;-143.37;100.00;65745.06;5075412;28;20232;-77
2021/09/23 08:58:52;;;;;;;13.37;8.23;;;;;;;-143.37;100.00;65745.06;5091407;28;20200;-77
2021/09/23 09:01:20;;;;;;;13.33;8.57;;;;;;;-143.37;100.00;65745.06;5090101;28;20208;-77
2021/09/23 09:04:00;;;;;;;15.83;8.97;;;;;;;-143.37;100.00;65745.06;5089671;28;20208;-77
2021/09/23 09:06:27;;;;;;;12.23;8.48;;;;;;;-143.37;100.00;65745.06;5090914;28;20784;-76
2021/09/23 09:08:54;;;;;;;12.75;8.57;;;;;;;-143.37;100.00;65745.06;5091573;28;20238;-77
2021/09/23 09:11:22;;;;;;;13.00;9.15;;;;;;;-143.37;100.00;65745.06;5074214;28;20205;-77
2021/09/23 09:13:52;;;;;;;12.15;7.53;;;;;;;-143.37;100.00;65745.06;5062195;28;20233;-76
2021/09/23 09:16:38;;;;;;;12.20;7.97;;;;;;;-143.37;100.00;65745.06;5070847;28;20225;-78
2021/09/23 09:19:10;;;;;;;10.50;7.95;;;;;;;-143.37;100.00;65745.06;5070600;28;20201;-77
2021/09/23 09:21:38;;;;;;;14.50;7.93;;;;;;;-143.37;100.00;65745.06;5071376;28;20258;-78
2021/09/23 09:24:04;;;;;;;9.48;7.35;;;;;;;-143.37;100.00;65745.06;5071241;28;20258;-76
2021/09/23 09:26:37;;;;;;;10.30;8.05;;;;;;;-143.37;100.00;65745.06;5070709;28;20278;-76
2021/09/23 09:29:11;;;;;;;11.20;7.53;;;;;;;-143.37;100.00;65745.06;5071112;28;20282;-76
2021/09/23 09:31:46;;;;;;;10.77;7.32;;;;;;;-143.37;100.00;65745.06;5070674;28;20638;-78
2021/09/23 09:34:13;;;;;;;9.13;6.72;;;;;;;-143.37;100.00;65745.06;5085211;28;20243;-77
2021/09/23 09:36:53;;;;;;;11.52;7.97;;;;;;;-143.37;100.00;65745.06;5090058;28;20228;-77
2021/09/23 09:39:21;;;;;;;9.10;7.15;;;;;;;-143.37;100.00;65745.06;5089607;28;20204;-78
2021/09/23 09:41:50;;;;;;;13.88;7.40;;;;;;;-143.37;100.00;65745.06;5090654;28;20243;-76
2021/09/23 09:44:17;;;;;;;7.60;6.55;;;;;;;-143.37;100.00;65745.06;5089934;28;20204;-77
2021/09/23 09:46:51;;;;;;;8.18;6.72;;;;;;;-143.37;100.00;65745.06;5089585;28;20242;-76
2021/09/23 09:49:21;;;;;;;9.13;7.22;;;;;;;-143.37;100.00;65745.06;5090407;28;20653;-77
2021/09/23 09:51:51;;;;;;;9.75;6.85;;;;;;;-143.37;100.00;65745.06;5090043;28;20205;-77
2021/09/23 09:54:19;;;;;;;8.68;6.32;;;;;;;-143.37;100.00;65745.06;5090750;28;20592;-78
2021/09/23 09:56:54;;;;;;;11.25;7.35;;;;;;;-143.37;100.00;65745.06;5093234;28;20236;-79
2021/09/23 09:59:21;;;;;;;9.18;7.20;;;;;;;-143.37;100.00;65745.06;5094235;28;20204;-76
2021/09/23 10:01:53;;;;;;;9.60;5.70;;;;;;;-143.37;100.00;65745.06;5095283;28;20212;-78
2021/09/23 10:04:22;;;;;;;10.18;5.68;;;;;;;-143.37;100.00;65745.06;5093810;28;20193;-77
2021/09/23 10:06:49;;;;;;;9.35;6.03;;;;;;;-143.37;100.00;65745.06;5093288;28;20220;-77
2021/09/23 10:09:17;;;;;;;11.70;5.50;;;;;;;-143.37;100.00;65745.06;5093947;28;20239;-77
2021/09/23 10:11:46;;;;;;;7.65;6.20;;;;;;;-143.37;100.00;65745.06;5073547;28;20217;-78
2021/09/23 10:14:14;;;;;;;9.52;5.82;;;;;;;-143.37;100.00;65745.06;5072918;28;20562;-77
2021/09/23 10:16:41;;;;;;;11.63;5.85;;;;;;;-143.37;100.00;65745.06;5073203;28;20316;-78
2021/09/23 10:19:09;;;;;;;10.82;6.47;;;;;;;-143.37;100.00;65745.06;5073771;28;20212;-77
2021/09/23 10:21:38;;;;;;;9.27;6.45;;;;;;;-143.37;100.00;65745.06;5072036;28;20286;-77
2021/09/23 10:24:06;;;;;;;7.15;5.47;;;;;;;-143.37;100.00;65745.06;5073528;28;20201;-79
2021/09/23 10:26:36;;;;;;;7.68;5.38;;;;;;;-143.37;100.00;65745.06;5072907;28;20757;-78
2021/09/23 10:29:05;;;;;;;9.35;6.15;;;;;;;-143.37;100.00;65745.06;5073642;28;20696;-77
2021/09/23 10:31:34;;;;;;;9.63;5.47;;;;;;;-143.37;100.00;65745.06;5073249;28;20669;-79
2021/09/23 10:34:06;;;;;;;8.18;5.88;;;;;;;-143.37;100.00;65745.06;5085822;28;20219;-78
2021/09/23 10:36:34;;;;;;;7.28;5.55;;;;;;;-143.37;100.00;65745.06;5093380;28;20913;-78
2021/09/23 10:39:05;;;;;;;7.68;5.25;;;;;;;-143.37;100.00;65745.06;5093460;28;20622;-79
2021/09/23 10:41:33;;;;;;;7.38;5.68;;;;;;;-143.37;100.00;65745.06;5093244;28;20638;-77
2021/09/23 10:44:00;;;;;;;8.43;5.28;;;;;;;-143.37;100.00;65745.06;5093505;28;20232;-79
2021/09/23 10:46:27;;;;;;;13.77;5.80;;;;;;;-143.37;100.00;65745.06;5091650;28;20228;-78
2021/09/23 10:48:56;;;;;;;10.45;4.95;;;;;;;-143.37;100.00;65745.06;5093294;28;20204;-78
2021/09/23 10:51:23;;;;;;;6.95;5.00;;;;;;;-143.37;100.00;65745.06;5093153;28;20208;-77
2021/09/23 10:53:55;;;;;;;8.88;5.30;;;;;;;-143.37;100.00;65745.06;5092841;28;20283;-78
2021/09/23 10:56:23;;;;;;;9.57;5.53;;;;;;;-143.37;100.00;65745.06;5088598;28;20659;-79
2021/09/23 10:58:50;;;;;;;7.65;5.00;;;;;;;-143.37;100.00;65745.06;5074346;28;20205;-78
2021/09/23 11:01:29;;;;;;;8.10;4.95;;;;;;;-143.37;100.00;65745.06;5073558;28;20269;-78
2021/09/23 11:04:02;;;;;;;7.55;4.85;;;;;;;-143.37;100.00;65745.06;5073935;28;20251;-77
2021/09/23 11:06:31;;;;;;;5.72;4.53;;;;;;;-143.37;100.00;65745.06;5073574;28;20705;-77
2021/09/23 11:08:58;;;;;;;10.02;4.07;;;;;;;-143.37;100.00;65745.06;5074752;28;20204;-77
2021/09/23 11:11:25;;;;;;;6.93;4.80;;;;;;;-143.37;100.00;65745.06;5074052;28;20680;-79
2021/09/23 11:13:53;;;;;;;9.40;4.60;;;;;;;-143.37;100.00;65745.06;5072104;28;20209;-78
2021/09/23 11:16:20;;;;;;;11.52;5.20;;;;;;;-143.37;100.00;65745.06;5072535;28;20229;-77
2021/09/23 11:18:47;;;;;;;8.40;4.55;;;;;;;-143.37;100.00;65745.06;5074111;28;20209;-77
2021/09/23 11:21:14;;;;;;;6.97;4.72;;;;;;;-143.37;100.00;65745.06;5072789;28;20307;-77
2021/09/23 11:23:41;;;;;;;7.13;4.85;;;;;;;-143.37;100.00;65745.06;5072007;28;20213;-78
2021/09/23 11:26:08;;;;;;;5.63;4.60;;;;;;;-143.37;100.00;65745.06;5072691;28;20863;-78
2021/09/23 11:28:37;;;;;;;9.05;4.45;;;;;;;-143.37;100.00;65745.06;5073109;28;20731;-77
2021/09/23 11:31:04;;;;;;;7.57;4.65;;;;;;;-143.37;100.00;65745.06;5072351;28;20602;-79
2021/09/23 11:33:31;;;;;;;5.13;3.85;;;;;;;-143.37;100.00;65745.06;5080274;28;20212;-78
2021/09/23 11:35:57;;;;;;;6.50;4.30;;;;;;;-143.37;100.00;65745.06;5091641;28;20693;-77
2021/09/23 11:38:25;;;;;;;6.07;4.18;;;;;;;-143.37;100.00;65745.06;5092054;28;20208;-77
2021/09/23 11:40:53;;;;;;;6.13;3.95;;;;;;;-143.37;100.00;65745.06;5091839;28;20291;-79
2021/09/23 11:43:29;;;;;;;6.07;4.28;;;;;;;-143.37;100.00;65745.06;5090397;28;20284;-77
2021/09/23 11:45:56;;;;;;;6.75;3.67;;;;;;;-143.37;100.00;65745.06;5091392;28;20224;-78
2021/09/23 11:48:27;;;;;;;6.65;4.18;;;;;;;-143.37;100.00;65745.06;5091387;28;20219;-78
2021/09/23 11:51:00;;;;;;;9.85;4.30;;;;;;;-143.37;100.00;65745.06;5092424;28;20242;-78
2021/09/23 11:53:30;;;;;;;6.80;4.40;;;;;;;-143.37;100.00;65745.06;5092301;28;20208;-78
2021/09/23 11:56:09;;;;;;;5.70;3.92;;;;;;;-143.37;100.00;65745.06;5092378;28;20285;-77
2021/09/23 11:58:39;;;;;;;6.20;3.95;;;;;;;-143.37;100.00;65745.06;5091708;28;20204;-76